createdAt,value
2023-05-22T00:02:57.443Z,14.20
2023-05-22T00:06:00.920Z,14.17
2023-05-22T00:09:04.665Z,13.23
2023-05-22T00:12:08.366Z,12.53
2023-05-22T00:15:12.405Z,12.77
2023-05-22T00:18:17.238Z,12.83
2023-05-22T00:21:20.808Z,14.33
2023-05-22T00:24:24.018Z,12.53
2023-05-22T00:27:27.253Z,13.43
2023-05-22T00:30:30.468Z,12.57
2023-05-22T00:33:35.065Z,13.47
2023-05-22T00:36:38.283Z,12.87
2023-05-22T00:39:41.528Z,12.43
2023-05-22T00:42:45.046Z,12.67
2023-05-22T00:45:48.472Z,12.53
2023-05-22T00:48:53.489Z,13.10
2023-05-22T00:51:56.816Z,11.93
2023-05-22T00:55:00.791Z,13.77
2023-05-22T00:58:07.571Z,13.33
2023-05-22T01:01:11.311Z,11.63
2023-05-22T01:04:18.444Z,12.77
2023-05-22T01:07:22.109Z,12.27
2023-05-22T01:10:25.504Z,10.83
2023-05-22T01:13:31.055Z,13.63
2023-05-22T01:16:37.304Z,14.53
2023-05-22T01:19:53.900Z,15.23
2023-05-22T01:23:17.136Z,13.57
2023-05-22T01:26:24.132Z,13.13
2023-05-22T01:29:41.055Z,12.07
2023-05-22T01:32:46.650Z,12.77
2023-05-22T01:35:51.513Z,13.10
2023-05-22T01:38:55.457Z,12.37
2023-05-22T01:41:59.148Z,12.67
2023-05-22T01:45:02.455Z,10.83
2023-05-22T01:48:07.292Z,11.73
2023-05-22T01:51:16.829Z,13.23
2023-05-22T01:54:24.790Z,13.07
2023-05-22T01:57:30.328Z,13.50
2023-05-22T02:00:34.449Z,13.00
2023-05-22T02:03:40.327Z,13.37
2023-05-22T02:06:44.566Z,13.17
2023-05-22T02:09:48.582Z,12.20
2023-05-22T02:12:51.823Z,13.93
2023-05-22T02:15:55.118Z,13.03
2023-05-22T02:19:06.189Z,13.60
2023-05-22T02:22:13.446Z,11.70
2023-05-22T02:25:17.759Z,12.40
2023-05-22T02:28:21.052Z,13.27
2023-05-22T02:31:24.436Z,13.77
2023-05-22T02:34:29.676Z,12.50
2023-05-22T02:37:32.891Z,13.03
2023-05-22T02:40:36.117Z,14.23
2023-05-22T02:43:39.409Z,11.63
2023-05-22T02:46:42.653Z,13.60
2023-05-22T02:49:47.446Z,13.47
2023-05-22T02:52:50.640Z,12.23
2023-05-22T02:55:53.868Z,13.47
2023-05-22T02:58:57.267Z,12.70
2023-05-22T03:02:00.582Z,12.97
2023-05-22T03:05:05.369Z,13.27
2023-05-22T03:08:08.613Z,13.57
2023-05-22T03:11:11.951Z,13.77
2023-05-22T03:14:15.242Z,14.23
2023-05-22T03:17:18.481Z,12.63
2023-05-22T03:20:23.121Z,12.43
2023-05-22T03:23:26.363Z,13.40
2023-05-22T03:26:29.572Z,12.83
2023-05-22T03:29:32.786Z,11.93
2023-05-22T03:32:37.633Z,12.53
2023-05-22T03:35:44.450Z,13.10
2023-05-22T03:38:47.672Z,12.87
2023-05-22T03:41:50.917Z,12.17
2023-05-22T03:44:54.115Z,12.13
2023-05-22T03:47:57.391Z,14.33
2023-05-22T03:51:01.962Z,12.70
2023-05-22T03:54:05.336Z,13.10
2023-05-22T03:57:08.566Z,13.20
2023-05-22T04:00:13.512Z,12.57
2023-05-22T04:03:19.604Z,12.63
2023-05-22T04:06:25.573Z,12.70
2023-05-22T04:09:28.875Z,11.87
2023-05-22T04:12:32.170Z,12.53
2023-05-22T04:15:36.335Z,15.43
2023-05-22T04:18:39.619Z,13.73
2023-05-22T04:21:44.180Z,12.70
2023-05-22T04:24:49.083Z,13.60
2023-05-22T04:27:52.394Z,12.60
2023-05-22T04:30:57.503Z,11.93
2023-05-22T04:34:01.140Z,12.33
2023-05-22T04:37:06.160Z,12.53
2023-05-22T04:40:10.250Z,12.43
2023-05-22T04:43:13.723Z,13.00
2023-05-22T04:46:17.164Z,13.50
2023-05-22T04:49:20.666Z,13.80
2023-05-22T04:52:25.360Z,12.60
2023-05-22T04:55:28.581Z,13.27
2023-05-22T04:58:31.832Z,13.10
2023-05-22T05:01:35.567Z,14.23
2023-05-22T05:04:38.952Z,13.70
2023-05-22T05:07:45.339Z,13.23
2023-05-22T05:10:49.486Z,13.20
2023-05-22T05:13:52.711Z,12.23
2023-05-22T05:16:56.955Z,12.80
2023-05-22T05:20:00.393Z,11.13
2023-05-22T05:23:05.038Z,12.63
2023-05-22T05:26:07.867Z,12.50
2023-05-22T05:29:10.743Z,12.53
2023-05-22T05:32:14.095Z,14.10
2023-05-22T05:35:17.141Z,12.73
2023-05-22T05:38:21.430Z,13.77
2023-05-22T05:41:24.235Z,12.27
2023-05-22T05:44:27.080Z,12.47
2023-05-22T05:47:30.176Z,13.43
2023-05-22T05:50:32.997Z,13.07
2023-05-22T05:53:37.613Z,14.80
2023-05-22T05:56:40.930Z,13.90
2023-05-22T05:59:43.767Z,12.77
2023-05-22T06:02:50.354Z,13.80
2023-05-22T06:05:54.276Z,13.53
2023-05-22T06:08:59.278Z,13.97
2023-05-22T06:12:02.546Z,14.20
2023-05-22T06:15:06.142Z,13.37
2023-05-22T06:18:09.445Z,12.93
2023-05-22T06:21:12.730Z,13.00
2023-05-22T06:24:17.320Z,12.80
2023-05-22T06:27:22.551Z,13.43
2023-05-22T06:30:38.878Z,12.20
2023-05-22T06:33:43.399Z,11.90
2023-05-22T06:36:46.892Z,13.73
2023-05-22T06:39:51.439Z,12.43
2023-05-22T06:42:54.740Z,11.07
2023-05-22T06:45:57.981Z,10.20
2023-05-22T06:49:01.276Z,14.27
2023-05-22T06:52:05.423Z,10.70
2023-05-22T06:55:10.709Z,10.67
2023-05-22T06:58:13.941Z,9.53
2023-05-22T07:01:17.199Z,9.27
2023-05-22T07:04:20.590Z,10.57
2023-05-22T07:07:23.866Z,10.77
2023-05-22T07:10:28.635Z,10.70
2023-05-22T07:13:32.190Z,11.37
2023-05-22T07:16:36.852Z,10.87
2023-05-22T07:19:40.410Z,13.17
2023-05-22T07:22:43.692Z,11.63
2023-05-22T07:25:48.514Z,10.43
2023-05-22T07:28:52.249Z,11.70
2023-05-22T07:31:55.488Z,12.93
2023-05-22T07:34:58.805Z,10.83
2023-05-22T07:38:02.131Z,9.90
2023-05-22T07:41:07.225Z,10.87
2023-05-22T07:44:10.483Z,11.37
2023-05-22T07:47:14.015Z,11.67
2023-05-22T07:50:17.337Z,9.87
2023-05-22T07:53:20.829Z,10.10
2023-05-22T07:56:25.772Z,10.18
2023-05-22T07:59:28.992Z,10.52
2023-05-22T08:02:33.572Z,10.43
2023-05-22T08:05:37.013Z,9.75
2023-05-22T08:08:40.345Z,10.38
2023-05-22T08:11:44.955Z,10.93
2023-05-22T08:14:48.252Z,9.57
2023-05-22T08:17:51.558Z,10.60
2023-05-22T08:20:55.065Z,10.52
2023-05-22T08:23:58.306Z,10.77
2023-05-22T08:27:02.888Z,10.18
2023-05-22T08:30:06.443Z,10.52
2023-05-22T08:33:09.826Z,9.95
2023-05-22T08:36:13.450Z,11.25
2023-05-22T08:39:17.481Z,11.30
2023-05-22T08:42:22.106Z,11.93
2023-05-22T08:45:26.170Z,10.27
2023-05-22T08:48:31.673Z,12.32
2023-05-22T08:51:35.991Z,9.60
2023-05-22T08:54:42.615Z,10.98
2023-05-22T08:57:47.375Z,10.70
2023-05-22T09:00:50.879Z,11.60
2023-05-22T09:03:54.196Z,13.52
2023-05-22T09:06:57.452Z,10.40
2023-05-22T09:10:01.172Z,11.82
2023-05-22T09:13:09.372Z,11.70
2023-05-22T09:16:13.650Z,13.05
2023-05-22T09:19:16.949Z,12.43
2023-05-22T09:22:21.764Z,10.85
2023-05-22T09:25:27.072Z,13.05
2023-05-22T09:28:34.876Z,11.73
2023-05-22T09:31:42.949Z,11.18
2023-05-22T09:34:46.921Z,12.60
2023-05-22T09:37:52.617Z,13.82
2023-05-22T09:40:56.197Z,12.38
2023-05-22T09:44:02.064Z,10.95
2023-05-22T09:47:08.258Z,12.43
2023-05-22T09:50:11.852Z,10.95
2023-05-22T09:53:16.101Z,11.35
2023-05-22T09:56:30.718Z,10.57
2023-05-22T09:59:40.806Z,11.35
2023-05-22T10:02:46.035Z,10.10
2023-05-22T10:05:50.467Z,13.05
2023-05-22T10:09:04.854Z,10.35
2023-05-22T10:12:10.209Z,11.05
2023-05-22T10:15:15.122Z,12.25
2023-05-22T10:18:18.836Z,11.90
2023-05-22T10:21:22.573Z,13.65
2023-05-22T10:24:26.150Z,12.82
2023-05-22T10:27:29.352Z,12.07
2023-05-22T10:30:38.442Z,10.38
2023-05-22T10:33:43.778Z,11.90
2023-05-22T10:40:04.214Z,12.48
2023-05-22T10:43:07.463Z,10.85
2023-05-22T10:46:13.872Z,12.88
2023-05-22T10:49:22.285Z,12.05
2023-05-22T10:52:25.146Z,12.23
2023-05-22T10:55:28.390Z,12.55
2023-05-22T10:58:36.427Z,14.32
2023-05-22T11:01:40.774Z,10.93
2023-05-22T11:04:44.058Z,11.63
2023-05-22T11:07:47.331Z,13.32
2023-05-22T11:10:54.232Z,11.35
2023-05-22T11:14:04.298Z,12.77
2023-05-22T11:17:09.119Z,12.73
2023-05-22T11:20:15.870Z,11.88
2023-05-22T11:23:20.699Z,10.75
2023-05-22T11:26:27.088Z,9.73
2023-05-22T11:29:31.174Z,11.77
2023-05-22T11:32:37.060Z,12.02
2023-05-22T11:35:40.454Z,10.52
2023-05-22T11:38:44.242Z,10.77
2023-05-22T11:41:47.571Z,12.23
2023-05-22T11:44:50.800Z,11.23
2023-05-22T11:47:56.383Z,11.48
2023-05-22T11:50:59.859Z,9.75
2023-05-22T11:54:02.902Z,10.88
2023-05-22T11:57:06.798Z,10.43
2023-05-22T12:00:10.712Z,10.70
2023-05-22T12:03:15.536Z,9.95
2023-05-22T12:06:19.135Z,10.52
2023-05-22T12:09:22.461Z,10.15
2023-05-22T12:12:25.760Z,9.45
2023-05-22T12:15:29.000Z,10.70
2023-05-22T12:18:38.359Z,9.85
2023-05-22T12:21:41.977Z,11.32
2023-05-22T12:24:46.913Z,11.63
2023-05-22T12:27:50.289Z,11.93
2023-05-22T12:30:54.724Z,12.27
2023-05-22T12:33:59.278Z,12.43
2023-05-22T12:37:02.785Z,11.32
2023-05-22T12:40:06.409Z,9.73
2023-05-22T12:43:09.655Z,9.65
2023-05-22T12:46:12.983Z,11.10
2023-05-22T12:49:17.586Z,11.57
2023-05-22T12:52:20.898Z,9.45
2023-05-22T12:55:23.861Z,11.32
2023-05-22T12:58:27.069Z,10.27
2023-05-22T13:01:30.561Z,9.27
2023-05-22T13:04:35.155Z,11.52
2023-05-22T13:07:38.755Z,9.93
2023-05-22T13:10:41.978Z,11.57
2023-05-22T13:13:45.195Z,10.77
2023-05-22T13:16:48.417Z,9.02
2023-05-22T13:19:53.127Z,10.52
2023-05-22T13:22:56.334Z,9.73
2023-05-22T13:26:01.870Z,9.90
2023-05-22T13:29:05.274Z,9.23
2023-05-22T13:32:08.497Z,9.75
2023-05-22T13:35:13.139Z,9.80
2023-05-22T13:38:16.527Z,11.70
2023-05-22T13:41:19.796Z,8.77
2023-05-22T13:44:23.192Z,8.55
2023-05-22T13:47:26.989Z,8.93
2023-05-22T13:50:31.647Z,8.57
2023-05-22T13:53:35.365Z,9.05
2023-05-22T13:56:38.630Z,8.57
2023-05-22T13:59:41.868Z,9.13
2023-05-22T14:02:45.505Z,9.10
2023-05-22T14:05:49.715Z,8.35
2023-05-22T14:08:52.533Z,8.45
2023-05-22T14:11:55.994Z,8.45
2023-05-22T14:14:59.254Z,7.95
2023-05-22T14:18:02.127Z,8.73
2023-05-22T14:21:06.907Z,6.78
2023-05-22T14:24:09.788Z,8.35
2023-05-22T14:27:12.603Z,8.82
2023-05-22T14:30:15.944Z,7.88
2023-05-22T14:33:19.187Z,7.95
2023-05-22T14:36:23.751Z,7.88
2023-05-22T14:39:27.077Z,8.05
2023-05-22T14:42:30.309Z,10.13
2023-05-22T14:45:33.604Z,7.65
2023-05-22T14:48:36.455Z,8.18
2023-05-22T14:51:41.083Z,8.25
2023-05-22T14:54:44.332Z,7.97
2023-05-22T14:57:47.544Z,8.23
2023-05-22T15:00:50.580Z,7.50
2023-05-22T15:03:53.405Z,6.72
2023-05-22T15:06:57.541Z,7.25
2023-05-22T15:10:00.834Z,7.70
2023-05-22T15:13:03.650Z,7.82
2023-05-22T15:16:07.121Z,6.93
2023-05-22T15:19:10.250Z,7.80
2023-05-22T15:22:19.255Z,7.75
2023-05-22T15:25:22.998Z,7.53
2023-05-22T15:28:26.915Z,7.97
2023-05-22T15:31:30.287Z,8.48
2023-05-22T15:34:33.128Z,8.02
2023-05-22T15:37:38.305Z,8.07
2023-05-22T15:40:41.869Z,8.20
2023-05-22T15:43:45.048Z,6.75
2023-05-22T15:46:47.924Z,6.75
2023-05-22T15:49:50.877Z,7.15
2023-05-22T15:52:55.097Z,7.22
2023-05-22T15:55:58.434Z,7.10
2023-05-22T15:59:01.340Z,6.95
2023-05-22T16:02:04.456Z,6.47
2023-05-22T16:05:07.511Z,11.05
2023-05-22T16:08:11.696Z,6.40
2023-05-22T16:11:14.590Z,6.05
2023-05-22T16:14:17.531Z,6.72
2023-05-22T16:17:20.774Z,6.28
2023-05-22T16:20:24.190Z,6.25
2023-05-22T16:23:28.459Z,7.43
2023-05-22T16:26:31.273Z,7.15
2023-05-22T16:29:34.508Z,7.38
2023-05-22T16:32:37.399Z,7.10
2023-05-22T16:35:40.670Z,6.85
2023-05-22T16:38:45.163Z,6.47
2023-05-22T16:41:47.972Z,6.88
2023-05-22T16:44:50.843Z,7.97
2023-05-22T16:47:55.951Z,7.35
2023-05-22T16:50:59.041Z,7.35
2023-05-22T16:54:03.308Z,7.50
2023-05-22T16:57:07.527Z,7.53
2023-05-22T17:00:11.840Z,7.13
2023-05-22T17:03:14.993Z,6.60
2023-05-22T17:06:20.871Z,7.55
2023-05-22T17:09:25.706Z,7.22
2023-05-22T17:12:28.539Z,6.93
2023-05-22T17:15:31.417Z,7.88
2023-05-22T17:18:34.265Z,7.35
2023-05-22T17:21:37.964Z,6.63
2023-05-22T17:24:42.339Z,8.07
2023-05-22T17:27:45.389Z,6.32
2023-05-22T17:30:48.352Z,7.15
2023-05-22T17:33:51.275Z,7.70
2023-05-22T17:36:54.083Z,6.85
2023-05-22T17:39:58.278Z,6.72
2023-05-22T17:43:02.426Z,6.95
2023-05-22T17:46:05.748Z,7.07
2023-05-22T17:49:08.625Z,7.60
2023-05-22T17:52:13.100Z,7.93
2023-05-22T17:55:17.610Z,8.10
2023-05-22T17:58:21.098Z,7.85
2023-05-22T18:01:24.454Z,7.60
2023-05-22T18:04:28.080Z,7.03
2023-05-22T18:07:31.567Z,7.38
2023-05-22T18:10:35.808Z,8.82
2023-05-22T18:13:38.705Z,7.13
2023-05-22T18:16:41.570Z,7.00
2023-05-22T18:19:44.429Z,8.35
2023-05-22T18:22:47.312Z,8.65
2023-05-22T18:25:52.036Z,6.93
2023-05-22T18:28:54.993Z,7.03
2023-05-22T18:31:57.857Z,7.45
2023-05-22T18:35:03.135Z,6.13
2023-05-22T18:38:06.411Z,6.78
2023-05-22T18:41:10.712Z,6.43
2023-05-22T18:44:13.992Z,6.53
2023-05-22T18:47:16.889Z,6.38
2023-05-22T18:50:22.138Z,7.35
2023-05-22T18:53:27.346Z,6.97
2023-05-22T18:56:32.284Z,6.68
2023-05-22T18:59:35.156Z,6.60
2023-05-22T19:02:38.087Z,6.75
2023-05-22T19:05:41.112Z,7.50
2023-05-22T19:08:43.938Z,7.25
2023-05-22T19:11:48.668Z,6.97
2023-05-22T19:14:52.485Z,7.20
2023-05-22T19:17:55.723Z,7.25
2023-05-22T19:20:58.938Z,6.70
2023-05-22T19:24:01.786Z,7.78
2023-05-22T19:27:06.390Z,7.95
2023-05-22T19:30:10.077Z,6.82
2023-05-22T19:33:14.760Z,7.75
2023-05-22T19:36:17.672Z,8.48
2023-05-22T19:39:20.492Z,8.05
2023-05-22T19:42:24.657Z,7.68
2023-05-22T19:45:27.632Z,7.70
2023-05-22T19:48:33.206Z,9.73
2023-05-22T19:51:37.207Z,8.70
2023-05-22T19:54:40.360Z,9.50
2023-05-22T19:57:45.423Z,9.05
2023-05-22T20:00:48.642Z,8.07
2023-05-22T20:03:51.888Z,7.70
2023-05-22T20:06:55.104Z,8.35
2023-05-22T20:09:57.951Z,8.32
2023-05-22T20:13:02.500Z,7.55
2023-05-22T20:16:11.738Z,8.45
2023-05-22T20:19:15.237Z,8.75
2023-05-22T20:22:18.177Z,8.52
2023-05-22T20:25:21.207Z,8.70
2023-05-22T20:28:26.242Z,9.10
2023-05-22T20:31:29.104Z,9.15
2023-05-22T20:34:32.046Z,8.57
2023-05-22T20:37:35.640Z,8.82
2023-05-22T20:40:38.446Z,9.82
2023-05-22T20:43:43.292Z,7.97
2023-05-22T20:46:46.443Z,10.93
2023-05-22T20:49:49.741Z,10.45
2023-05-22T20:52:52.770Z,8.65
2023-05-22T20:55:57.437Z,8.82
2023-05-22T20:59:01.664Z,9.27
2023-05-22T21:02:04.865Z,9.57
2023-05-22T21:05:08.273Z,9.35
2023-05-22T21:08:11.136Z,9.18
2023-05-22T21:11:14.035Z,10.10
2023-05-22T21:14:18.218Z,9.15
2023-05-22T21:17:21.134Z,10.38
2023-05-22T21:20:23.988Z,10.05
2023-05-22T21:23:26.947Z,9.48
2023-05-22T21:26:29.762Z,9.82
2023-05-22T21:29:34.138Z,9.32
2023-05-22T21:32:37.012Z,10.02
2023-05-22T21:35:39.843Z,10.57
2023-05-22T21:38:42.837Z,10.43
2023-05-22T21:41:46.054Z,8.73
2023-05-22T21:44:51.305Z,9.55
2023-05-22T21:47:54.193Z,9.70
2023-05-22T21:50:57.112Z,9.40
2023-05-22T21:54:00.012Z,10.50
2023-05-22T21:57:02.950Z,9.45
2023-05-22T22:00:08.448Z,10.05
2023-05-22T22:03:12.125Z,9.32
2023-05-22T22:06:15.054Z,9.63
2023-05-22T22:09:17.904Z,10.65
2023-05-22T22:12:20.913Z,10.35
2023-05-22T22:15:25.284Z,10.45
2023-05-22T22:18:28.105Z,9.97
2023-05-22T22:21:31.580Z,11.05
2023-05-22T22:24:34.441Z,9.70
2023-05-22T22:27:37.816Z,10.00
2023-05-22T22:30:42.111Z,12.40
2023-05-22T22:33:45.029Z,10.50
2023-05-22T22:36:48.310Z,9.77
2023-05-22T22:39:51.142Z,10.48
2023-05-22T22:42:54.090Z,10.32
2023-05-22T22:45:58.306Z,10.40
2023-05-22T22:49:01.813Z,9.98
2023-05-22T22:52:05.008Z,10.30
2023-05-22T22:55:11.041Z,8.90
2023-05-22T22:58:14.087Z,9.50
2023-05-22T23:01:18.345Z,11.18
2023-05-22T23:04:21.301Z,10.20
2023-05-22T23:07:24.208Z,10.57
2023-05-22T23:10:27.170Z,10.10
2023-05-22T23:13:30.294Z,10.87
2023-05-22T23:16:36.755Z,9.88
2023-05-22T23:19:39.585Z,9.57
2023-05-22T23:22:42.435Z,10.02
2023-05-22T23:25:45.509Z,11.35
2023-05-22T23:28:48.328Z,10.30
2023-05-22T23:31:52.694Z,10.53
2023-05-22T23:34:55.762Z,9.87
2023-05-22T23:37:58.590Z,9.75
2023-05-22T23:41:01.423Z,10.37
2023-05-22T23:44:04.295Z,10.07
2023-05-22T23:47:08.689Z,10.40
2023-05-22T23:50:12.334Z,10.60
2023-05-22T23:53:15.164Z,9.73
2023-05-22T23:56:17.969Z,10.23
2023-05-22T23:59:20.932Z,11.30
